San Luis County Regional Airport
KSBP : now visible

Airfield :











YOU CAN JOIN US ON...

 
LOGIN :

Register | Disclaimer

   EN    FR    IT 

 









Legend :    VFR   Marginal VFR   IFR   Intensive IFR   Very Intensive IFR
Visi :
Ceiling :
>= 8 km
>= 3000ft
5 to 8 km
1000 to 3000 ft
1500m to 5 km
500 to 1000 ft
800 to 1500m
200 to 500 ft
< 800m
< 200 ft
Symbols :   Thunderstorms  Fog  Heavy snow  Heavy precipitations  Wind > 20 kt






- Airport Elevation : 212 ft
- IATA code : SBP


KSBP - San Luis County Regional

CURRENT METAR :
  • 222256Z 30011KT 10SM CLR 23/13 A2991 RMK AO2 SLP126 T02330128

EXPIRED METARs :
  • 222156Z VRB06KT 10SM CLR 24/13 A2993 RMK AO2 SLP131 T02440128
  • 222056Z VRB04KT 10SM CLR 24/13 A2993 RMK AO2 SLP132 T02390133 55005

TAF KSBP
Valid from the 22 at 18:00 until the 23 at 18:00 UTC


221734Z 2218/2318 34003KT P6SM SCT021
FM221900 21008KT P6SM SKC
FM222200 29008KT P6SM SKC
FM230500 VRB03KT P6SM OVC012
FM231000 VRB03KT P6SM OVC008
KZLA FIR / North America



MET'MAP, your aeronautical weather chart ! - Copyright ORBIFLY December 2007 - Disclaimer

ORBIFLY MET'MAP TEAM :

Programming & Development : Alexandra Zaïnal
Concept & original design : Baudouin d'Aumeries
Assistance for programming : Marc-Olivier Méhu
Technical & hardware support : Manuel Goepfert

Contact : metmap@orbifly.com




SOURCES & CREDITS :

   NOAA       Earth
Advisory